»·PEaware :: N66P KGJT-KSLC

N66P :: KGJT-KSLC

FLIGHT INFORMATION

Flight Status: Arrived
Operator: Privately registered:
United States
More flights under this callsign
Pilot: Scott C. (31939)
Aircraft: CESSNA 172 SKYHAWK
(C172)
More flights by this aircraft type
Origin: KGJT Grand Junction Regl
United States
Destination: KSLC Salt Lake City Intl
United States
More flights between these airports :: More routes between these airports
Route: +
File this flight plan on PilotEdge
Remarks: FF
Altitude:
(Current/Filed)
0ft
Speed:
(Current/Filed)
0kts
Departed: 11-Oct-20 02:15 PM
Arrived: 11-Oct-20 04:17 PM
Distance/Time
Traveled:
187nm/2:01
Distance/Time
To Go:
Arrived

Flight Plot

Page will automatically refresh every two minutes.

Flight plan parsing failed; only flown route is shown


Map Options




Map Legend


Flown Route
Filed Route
Departure Airport
Arrival Airport
Navaid (VOR, NDB)
Fix

Horizontal Profiles

Position Reports

Time Latitude Longitude Heading Altitude Ground
Speed
11-Oct-20 14:07 39.116626 -108.521745 67 4839ft 0kts
11-Oct-20 14:08 39.116626 -108.521745 67 4839ft 0kts
11-Oct-20 14:09 39.116452 -108.521562 181 4839ft 7kts
11-Oct-20 14:10 39.116261 -108.520016 55 4841ft 9kts
11-Oct-20 14:11 39.117779 -108.517273 54 4855ft 0kts
11-Oct-20 14:12 39.118037 -108.516826 62 4857ft 0kts
11-Oct-20 14:13 39.117995 -108.515785 118 4860ft 12kts
11-Oct-20 14:14 39.121937 -108.520756 302 4880ft 69kts
11-Oct-20 14:15 39.130947 -108.540888 307 5610ft 59kts
11-Oct-20 14:16 39.127661 -108.561688 241 6144ft 79kts
11-Oct-20 14:17 39.119320 -108.589199 252 6571ft 92kts
11-Oct-20 14:18 39.112812 -108.620306 249 7078ft 91kts
11-Oct-20 14:19 39.106234 -108.653110 251 7483ft 97kts
11-Oct-20 14:20 39.099253 -108.686819 251 7880ft 97kts
11-Oct-20 14:21 39.092514 -108.719664 251 8253ft 91kts
11-Oct-20 14:22 39.081940 -108.744017 207 8591ft 76kts
11-Oct-20 14:23 39.067184 -108.761917 243 8976ft 73kts
11-Oct-20 14:24 39.069011 -108.787041 280 9295ft 75kts
11-Oct-20 14:25 39.073825 -108.813921 273 9600ft 70kts
11-Oct-20 14:26 39.075704 -108.841355 267 9704ft 97kts
11-Oct-20 14:27 39.077563 -108.881185 284 9702ft 119kts
11-Oct-20 14:28 39.087748 -108.919932 285 9716ft 106kts
11-Oct-20 14:29 39.097120 -108.954709 284 9718ft 102kts
11-Oct-20 14:30 39.106501 -108.989534 284 9710ft 104kts
11-Oct-20 14:31 39.115749 -109.023761 285 9711ft 100kts
11-Oct-20 14:32 39.125423 -109.059783 284 9709ft 109kts
11-Oct-20 14:33 39.135336 -109.096866 284 9706ft 108kts
11-Oct-20 14:34 39.145308 -109.134173 284 9599ft 114kts
11-Oct-20 14:35 39.155454 -109.172268 284 9579ft 110kts
11-Oct-20 14:36 39.165413 -109.209370 284 9578ft 108kts
11-Oct-20 14:37 39.175271 -109.246011 284 9579ft 107kts
11-Oct-20 14:38 39.194855 -109.272964 314 9573ft 111kts
11-Oct-20 14:39 39.206876 -109.308806 285 9578ft 109kts
11-Oct-20 14:40 39.216959 -109.345031 285 9665ft 103kts
11-Oct-20 14:41 39.226716 -109.379806 285 9872ft 108kts
11-Oct-20 14:42 39.237210 -109.417112 284 10068ft 112kts
11-Oct-20 14:43 39.247914 -109.455251 285 10266ft 114kts
11-Oct-20 14:44 39.258779 -109.493985 285 10407ft 110kts
11-Oct-20 14:45 39.268909 -109.530164 285 10494ft 113kts
11-Oct-20 14:46 39.279650 -109.568582 284 10451ft 107kts
11-Oct-20 14:47 39.289637 -109.604337 284 10459ft 103kts
11-Oct-20 14:48 39.299273 -109.638911 284 10465ft 100kts
11-Oct-20 14:49 39.308836 -109.673236 284 10472ft 104kts
11-Oct-20 14:50 39.318817 -109.709135 284 10468ft 105kts
11-Oct-20 14:51 39.328603 -109.744380 284 10469ft 103kts
11-Oct-20 14:52 39.338227 -109.779076 284 10465ft 101kts
11-Oct-20 14:53 39.347792 -109.813610 284 10472ft 104kts
11-Oct-20 14:54 39.357523 -109.848788 284 10467ft 102kts
11-Oct-20 14:55 39.367158 -109.883693 284 10483ft 109kts
11-Oct-20 14:56 39.377339 -109.920592 284 10435ft 100kts
11-Oct-20 14:57 39.385650 -109.950813 284 10489ft 93kts
11-Oct-20 14:58 39.395410 -109.986243 285 10494ft 110kts
11-Oct-20 14:59 39.405906 -110.024473 284 10526ft 112kts
11-Oct-20 15:00 39.415709 -110.060176 282 10481ft 102kts
11-Oct-20 15:01 39.426024 -110.097837 283 10498ft 115kts
11-Oct-20 15:02 39.436622 -110.136578 283 10509ft 116kts
11-Oct-20 15:03 39.447425 -110.176148 283 10493ft 114kts
11-Oct-20 15:04 39.458144 -110.215471 283 10518ft 117kts
11-Oct-20 15:05 39.468836 -110.254721 282 10458ft 108kts
11-Oct-20 15:06 39.478542 -110.290450 283 10489ft 111kts
11-Oct-20 15:07 39.488674 -110.327759 283 10514ft 110kts
11-Oct-20 15:09 39.499002 -110.365914 283 10518ft 109kts
11-Oct-20 15:10 39.509125 -110.403298 283 10506ft 113kts
11-Oct-20 15:11 39.519899 -110.443133 283 10499ft 118kts
11-Oct-20 15:12 39.530804 -110.483561 283 10499ft 118kts
11-Oct-20 15:13 39.541547 -110.523451 283 10500ft 117kts
11-Oct-20 15:14 39.552524 -110.564247 283 10396ft 120kts
11-Oct-20 15:15 39.563403 -110.604777 283 10390ft 117kts
11-Oct-20 15:16 39.574074 -110.644591 283 10394ft 117kts
11-Oct-20 15:17 39.584822 -110.684747 283 10390ft 118kts
11-Oct-20 15:18 39.595592 -110.725047 283 10391ft 118kts
11-Oct-20 15:19 39.609000 -110.763637 299 10392ft 121kts
11-Oct-20 15:20 39.629331 -110.798997 301 10390ft 121kts
11-Oct-20 15:21 39.649505 -110.833973 301 10390ft 121kts
11-Oct-20 15:22 39.669651 -110.869013 301 10389ft 121kts
11-Oct-20 15:23 39.689990 -110.904436 301 10400ft 121kts
11-Oct-20 15:24 39.710550 -110.940256 301 10394ft 122kts
11-Oct-20 15:25 39.731174 -110.976269 301 10390ft 125kts
11-Oct-20 15:25 39.748449 -111.006473 301 10388ft 123kts
11-Oct-20 15:27 39.772096 -111.047841 300 10388ft 121kts
11-Oct-20 15:27 39.788994 -111.077442 301 10412ft 128kts
11-Oct-20 15:29 39.813592 -111.120568 301 10371ft 120kts
11-Oct-20 15:29 39.829532 -111.147947 300 10428ft 112kts
11-Oct-20 15:30 39.852989 -111.170202 311 10470ft 97kts
11-Oct-20 15:31 39.874169 -111.192328 311 10743ft 100kts
11-Oct-20 15:32 39.894916 -111.214098 312 10664ft 86kts
11-Oct-20 15:33 39.911338 -111.231080 307 10604ft 79kts
11-Oct-20 15:34 39.928055 -111.255500 302 10293ft 83kts
11-Oct-20 15:35 39.941776 -111.279847 299 10187ft 91kts
11-Oct-20 15:36 39.954793 -111.307382 299 9941ft 90kts
11-Oct-20 15:37 39.969201 -111.338702 297 9788ft 102kts
11-Oct-20 15:38 39.977585 -111.374151 276 9634ft 102kts
11-Oct-20 15:39 39.982056 -111.411373 281 9607ft 105kts
11-Oct-20 15:40 39.994681 -111.445584 299 9496ft 109kts
11-Oct-20 15:41 40.011904 -111.477301 298 9376ft 105kts
11-Oct-20 15:42 40.027472 -111.510648 297 9362ft 105kts
11-Oct-20 15:43 40.045777 -111.542078 307 9120ft 111kts
11-Oct-20 15:44 40.065900 -111.570182 308 8448ft 105kts
11-Oct-20 15:45 40.085634 -111.598221 308 7839ft 103kts
11-Oct-20 15:46 40.101241 -111.628804 299 7556ft 100kts
11-Oct-20 15:47 40.117549 -111.658650 302 7374ft 101kts
11-Oct-20 15:48 40.134240 -111.688286 302 7166ft 101kts
11-Oct-20 15:49 40.150589 -111.717460 302 7082ft 95kts
11-Oct-20 15:50 40.166167 -111.745328 302 7080ft 94kts
11-Oct-20 15:51 40.184251 -111.770583 313 7081ft 96kts
11-Oct-20 15:52 40.205366 -111.791883 340 7092ft 101kts
11-Oct-20 15:53 40.233208 -111.775246 23 7082ft 117kts
11-Oct-20 15:54 40.260733 -111.751976 23 7081ft 117kts
11-Oct-20 15:55 40.289575 -111.733644 12 7079ft 114kts
11-Oct-20 15:56 40.319070 -111.722877 332 7086ft 103kts
11-Oct-20 15:57 40.343933 -111.740648 321 7080ft 100kts
11-Oct-20 15:58 40.364858 -111.763050 311 7079ft 95kts
11-Oct-20 15:59 40.384358 -111.787088 307 7061ft 96kts
11-Oct-20 16:00 40.402659 -111.813507 304 6649ft 97kts
11-Oct-20 16:01 40.416551 -111.843372 302 6303ft 94kts
11-Oct-20 16:02 40.432859 -111.870405 306 6127ft 93kts
11-Oct-20 16:03 40.452074 -111.893976 319 6180ft 90kts
11-Oct-20 16:04 40.476805 -111.907391 1 6075ft 119kts
11-Oct-20 16:05 40.510540 -111.899923 1 5507ft 118kts
11-Oct-20 16:06 40.541058 -111.896529 343 5615ft 103kts
11-Oct-20 16:07 40.566115 -111.910937 322 5968ft 97kts
11-Oct-20 16:08 40.590818 -111.928507 330 6101ft 107kts
11-Oct-20 16:09 40.619009 -111.939125 340 5739ft 104kts
11-Oct-20 16:10 40.648100 -111.944212 348 5498ft 105kts
11-Oct-20 16:11 40.677686 -111.944027 352 5366ft 106kts
11-Oct-20 16:12 40.704853 -111.951978 334 5416ft 96kts
11-Oct-20 16:13 40.728973 -111.961623 337 5398ft 81kts
11-Oct-20 16:14 40.752066 -111.962402 349 4975ft 80kts
11-Oct-20 16:15 40.772441 -111.962050 350 4311ft 63kts
11-Oct-20 16:16 40.782343 -111.962043 48 4227ft 8kts
11-Oct-20 16:17 40.782438 -111.960728 90 4224ft 0kts
11-Oct-20 16:18 40.781212 -111.960056 180 4225ft 14kts
11-Oct-20 16:19 40.779024 -111.958710 86 4226ft 6kts
11-Oct-20 16:20 40.779029 -111.958444 88 4226ft 0kts
11-Oct-20 16:21 40.779029 -111.958444 88 4226ft 0kts
11-Oct-20 16:22 40.779029 -111.958444 88 4226ft 0kts
11-Oct-20 16:23 40.779029 -111.958444 88 4226ft 0kts
11-Oct-20 16:24 40.779029 -111.958444 88 4226ft 0kts

Navigation Log

Ident Type
Flight plan parsing failed, navigation log unavailable